sensor_id;sensor_type;location;lat;lon;timestamp;P1;durP1;ratioP1;P2;durP2;ratioP2
4409;SDS011;2218;51.408;7.208;2023-05-08T00:00:33;1.40;;;1.30;;
4409;SDS011;2218;51.408;7.208;2023-05-08T00:03:01;1.47;;;1.37;;
4409;SDS011;2218;51.408;7.208;2023-05-08T00:05:28;1.43;;;1.33;;
4409;SDS011;2218;51.408;7.208;2023-05-08T00:07:55;1.47;;;1.37;;
4409;SDS011;2218;51.408;7.208;2023-05-08T00:10:25;1.47;;;1.37;;
4409;SDS011;2218;51.408;7.208;2023-05-08T00:12:53;1.40;;;1.30;;
4409;SDS011;2218;51.408;7.208;2023-05-08T00:15:21;1.50;;;1.40;;
4409;SDS011;2218;51.408;7.208;2023-05-08T00:17:48;1.30;;;1.20;;
4409;SDS011;2218;51.408;7.208;2023-05-08T00:20:15;1.43;;;1.33;;
4409;SDS011;2218;51.408;7.208;2023-05-08T00:22:42;1.40;;;1.30;;
4409;SDS011;2218;51.408;7.208;2023-05-08T00:25:09;1.57;;;1.47;;
4409;SDS011;2218;51.408;7.208;2023-05-08T00:27:36;1.37;;;1.30;;
4409;SDS011;2218;51.408;7.208;2023-05-08T00:30:03;1.63;;;1.53;;
4409;SDS011;2218;51.408;7.208;2023-05-08T00:32:33;1.43;;;1.33;;
4409;SDS011;2218;51.408;7.208;2023-05-08T00:35:00;1.73;;;1.63;;
4409;SDS011;2218;51.408;7.208;2023-05-08T00:37:27;1.50;;;1.40;;
4409;SDS011;2218;51.408;7.208;2023-05-08T00:39:54;1.73;;;1.63;;
4409;SDS011;2218;51.408;7.208;2023-05-08T00:42:21;2.00;;;1.77;;
4409;SDS011;2218;51.408;7.208;2023-05-08T00:44:48;1.80;;;1.70;;
4409;SDS011;2218;51.408;7.208;2023-05-08T00:47:15;1.80;;;1.70;;
4409;SDS011;2218;51.408;7.208;2023-05-08T00:49:43;1.40;;;1.30;;
4409;SDS011;2218;51.408;7.208;2023-05-08T00:52:10;1.60;;;1.50;;
4409;SDS011;2218;51.408;7.208;2023-05-08T00:54:38;1.50;;;1.40;;
4409;SDS011;2218;51.408;7.208;2023-05-08T00:57:06;1.90;;;1.80;;
4409;SDS011;2218;51.408;7.208;2023-05-08T00:59:33;1.60;;;1.50;;
4409;SDS011;2218;51.408;7.208;2023-05-08T01:02:02;1.73;;;1.63;;
4409;SDS011;2218;51.408;7.208;2023-05-08T01:04:30;1.97;;;1.87;;
4409;SDS011;2218;51.408;7.208;2023-05-08T01:07:01;1.23;;;1.13;;
4409;SDS011;2218;51.408;7.208;2023-05-08T01:09:28;1.67;;;1.57;;
4409;SDS011;2218;51.408;7.208;2023-05-08T01:12:00;1.70;;;1.60;;
4409;SDS011;2218;51.408;7.208;2023-05-08T01:14:43;1.60;;;1.50;;
4409;SDS011;2218;51.408;7.208;2023-05-08T01:17:26;1.40;;;1.30;;
4409;SDS011;2218;51.408;7.208;2023-05-08T01:20:09;1.70;;;1.60;;
4409;SDS011;2218;51.408;7.208;2023-05-08T01:23:03;1.73;;;1.63;;
4409;SDS011;2218;51.408;7.208;2023-05-08T01:29:57;1.53;;;1.43;;
4409;SDS011;2218;51.408;7.208;2023-05-08T01:33:00;1.40;;;1.30;;
4409;SDS011;2218;51.408;7.208;2023-05-08T01:35:33;2.10;;;2.00;;
4409;SDS011;2218;51.408;7.208;2023-05-08T01:38:11;1.90;;;1.80;;
4409;SDS011;2218;51.408;7.208;2023-05-08T01:40:50;1.70;;;1.60;;
4409;SDS011;2218;51.408;7.208;2023-05-08T01:43:24;1.83;;;1.73;;
4409;SDS011;2218;51.408;7.208;2023-05-08T01:46:16;1.80;;;1.70;;
4409;SDS011;2218;51.408;7.208;2023-05-08T01:48:52;1.70;;;1.60;;
4409;SDS011;2218;51.408;7.208;2023-05-08T01:51:30;2.13;;;2.03;;
4409;SDS011;2218;51.408;7.208;2023-05-08T01:54:05;1.90;;;1.80;;
4409;SDS011;2218;51.408;7.208;2023-05-08T01:56:38;1.80;;;1.70;;
4409;SDS011;2218;51.408;7.208;2023-05-08T01:59:08;1.80;;;1.70;;
4409;SDS011;2218;51.408;7.208;2023-05-08T02:01:41;1.80;;;1.70;;
4409;SDS011;2218;51.408;7.208;2023-05-08T02:04:11;1.80;;;1.70;;
4409;SDS011;2218;51.408;7.208;2023-05-08T02:06:41;1.83;;;1.73;;
4409;SDS011;2218;51.408;7.208;2023-05-08T02:09:10;1.80;;;1.70;;
4409;SDS011;2218;51.408;7.208;2023-05-08T02:11:38;1.90;;;1.80;;
4409;SDS011;2218;51.408;7.208;2023-05-08T02:14:09;1.77;;;1.67;;
4409;SDS011;2218;51.408;7.208;2023-05-08T02:16:39;1.90;;;1.80;;
4409;SDS011;2218;51.408;7.208;2023-05-08T02:19:09;1.80;;;1.70;;
4409;SDS011;2218;51.408;7.208;2023-05-08T02:21:40;2.00;;;1.90;;
4409;SDS011;2218;51.408;7.208;2023-05-08T02:24:10;1.90;;;1.80;;
4409;SDS011;2218;51.408;7.208;2023-05-08T02:26:40;1.80;;;1.70;;
4409;SDS011;2218;51.408;7.208;2023-05-08T02:29:10;2.03;;;1.93;;
4409;SDS011;2218;51.408;7.208;2023-05-08T02:31:38;1.87;;;1.77;;
4409;SDS011;2218;51.408;7.208;2023-05-08T02:34:08;1.80;;;1.70;;
4409;SDS011;2218;51.408;7.208;2023-05-08T02:36:38;1.87;;;1.77;;
4409;SDS011;2218;51.408;7.208;2023-05-08T02:39:07;2.00;;;1.90;;
4409;SDS011;2218;51.408;7.208;2023-05-08T02:41:40;2.10;;;2.00;;
4409;SDS011;2218;51.408;7.208;2023-05-08T02:44:07;1.80;;;1.70;;
4409;SDS011;2218;51.408;7.208;2023-05-08T02:46:38;2.00;;;1.90;;
4409;SDS011;2218;51.408;7.208;2023-05-08T02:49:19;1.87;;;1.77;;
4409;SDS011;2218;51.408;7.208;2023-05-08T02:51:56;2.00;;;1.90;;
4409;SDS011;2218;51.408;7.208;2023-05-08T02:54:33;1.90;;;1.80;;
4409;SDS011;2218;51.408;7.208;2023-05-08T02:57:08;1.70;;;1.60;;
4409;SDS011;2218;51.408;7.208;2023-05-08T02:59:44;1.87;;;1.77;;
4409;SDS011;2218;51.408;7.208;2023-05-08T03:02:21;1.97;;;1.87;;
4409;SDS011;2218;51.408;7.208;2023-05-08T03:05:01;1.77;;;1.67;;
4409;SDS011;2218;51.408;7.208;2023-05-08T03:07:37;1.80;;;1.70;;
4409;SDS011;2218;51.408;7.208;2023-05-08T03:10:09;2.20;;;2.10;;
4409;SDS011;2218;51.408;7.208;2023-05-08T03:12:41;1.80;;;1.70;;
4409;SDS011;2218;51.408;7.208;2023-05-08T03:15:15;1.93;;;1.83;;
4409;SDS011;2218;51.408;7.208;2023-05-08T03:17:49;2.30;;;2.20;;
4409;SDS011;2218;51.408;7.208;2023-05-08T03:20:23;1.80;;;1.70;;
4409;SDS011;2218;51.408;7.208;2023-05-08T03:22:58;2.00;;;1.90;;
4409;SDS011;2218;51.408;7.208;2023-05-08T03:25:28;1.87;;;1.77;;
4409;SDS011;2218;51.408;7.208;2023-05-08T03:27:57;1.90;;;1.80;;
4409;SDS011;2218;51.408;7.208;2023-05-08T03:30:28;1.90;;;1.80;;
4409;SDS011;2218;51.408;7.208;2023-05-08T03:33:06;1.70;;;1.60;;
4409;SDS011;2218;51.408;7.208;2023-05-08T03:35:36;1.90;;;1.80;;
4409;SDS011;2218;51.408;7.208;2023-05-08T03:38:06;1.87;;;1.77;;
4409;SDS011;2218;51.408;7.208;2023-05-08T03:40:35;1.90;;;1.80;;
4409;SDS011;2218;51.408;7.208;2023-05-08T03:43:04;1.77;;;1.67;;
4409;SDS011;2218;51.408;7.208;2023-05-08T03:45:33;1.60;;;1.50;;
4409;SDS011;2218;51.408;7.208;2023-05-08T03:48:02;1.70;;;1.60;;
4409;SDS011;2218;51.408;7.208;2023-05-08T03:50:31;2.00;;;1.90;;
4409;SDS011;2218;51.408;7.208;2023-05-08T03:53:02;1.70;;;1.60;;
4409;SDS011;2218;51.408;7.208;2023-05-08T03:55:30;1.80;;;1.70;;
4409;SDS011;2218;51.408;7.208;2023-05-08T03:58:00;1.93;;;1.83;;
4409;SDS011;2218;51.408;7.208;2023-05-08T04:00:42;2.07;;;1.97;;
4409;SDS011;2218;51.408;7.208;2023-05-08T04:03:31;2.00;;;1.90;;
4409;SDS011;2218;51.408;7.208;2023-05-08T04:06:23;1.90;;;1.80;;
4409;SDS011;2218;51.408;7.208;2023-05-08T04:09:01;1.77;;;1.67;;
4409;SDS011;2218;51.408;7.208;2023-05-08T04:11:34;1.80;;;1.70;;
4409;SDS011;2218;51.408;7.208;2023-05-08T04:14:26;1.80;;;1.70;;
4409;SDS011;2218;51.408;7.208;2023-05-08T04:17:01;1.70;;;1.60;;
4409;SDS011;2218;51.408;7.208;2023-05-08T04:19:32;2.10;;;2.00;;
4409;SDS011;2218;51.408;7.208;2023-05-08T04:22:08;2.00;;;1.90;;
4409;SDS011;2218;51.408;7.208;2023-05-08T04:24:40;1.63;;;1.53;;
4409;SDS011;2218;51.408;7.208;2023-05-08T04:27:11;1.90;;;1.80;;
4409;SDS011;2218;51.408;7.208;2023-05-08T04:29:39;2.00;;;1.90;;
4409;SDS011;2218;51.408;7.208;2023-05-08T04:32:07;2.17;;;2.07;;
4409;SDS011;2218;51.408;7.208;2023-05-08T04:34:35;2.00;;;1.90;;
4409;SDS011;2218;51.408;7.208;2023-05-08T04:37:05;2.10;;;2.00;;
4409;SDS011;2218;51.408;7.208;2023-05-08T04:39:33;2.00;;;1.90;;
4409;SDS011;2218;51.408;7.208;2023-05-08T04:42:01;2.20;;;2.10;;
4409;SDS011;2218;51.408;7.208;2023-05-08T04:44:31;2.13;;;2.03;;
4409;SDS011;2218;51.408;7.208;2023-05-08T04:46:58;2.10;;;2.00;;
4409;SDS011;2218;51.408;7.208;2023-05-08T04:49:25;1.90;;;1.80;;
4409;SDS011;2218;51.408;7.208;2023-05-08T04:51:51;2.30;;;2.20;;
4409;SDS011;2218;51.408;7.208;2023-05-08T04:54:19;2.43;;;2.33;;
4409;SDS011;2218;51.408;7.208;2023-05-08T04:56:45;1.73;;;1.63;;
4409;SDS011;2218;51.408;7.208;2023-05-08T04:59:14;2.07;;;1.97;;
4409;SDS011;2218;51.408;7.208;2023-05-08T05:01:41;2.23;;;1.70;;
4409;SDS011;2218;51.408;7.208;2023-05-08T05:04:08;2.00;;;1.90;;
4409;SDS011;2218;51.408;7.208;2023-05-08T05:06:35;1.83;;;1.73;;
4409;SDS011;2218;51.408;7.208;2023-05-08T05:09:02;1.70;;;1.60;;
4409;SDS011;2218;51.408;7.208;2023-05-08T05:11:30;2.00;;;1.90;;
4409;SDS011;2218;51.408;7.208;2023-05-08T05:13:57;1.57;;;1.47;;
4409;SDS011;2218;51.408;7.208;2023-05-08T05:16:26;2.07;;;1.97;;
4409;SDS011;2218;51.408;7.208;2023-05-08T05:18:53;1.77;;;1.67;;
4409;SDS011;2218;51.408;7.208;2023-05-08T05:21:20;1.50;;;1.40;;
4409;SDS011;2218;51.408;7.208;2023-05-08T05:23:47;2.03;;;1.93;;
4409;SDS011;2218;51.408;7.208;2023-05-08T05:26:14;1.93;;;1.83;;
4409;SDS011;2218;51.408;7.208;2023-05-08T05:28:41;1.83;;;1.73;;
4409;SDS011;2218;51.408;7.208;2023-05-08T05:31:08;1.90;;;1.80;;
4409;SDS011;2218;51.408;7.208;2023-05-08T05:33:36;1.83;;;1.73;;
4409;SDS011;2218;51.408;7.208;2023-05-08T05:36:04;1.90;;;1.80;;
4409;SDS011;2218;51.408;7.208;2023-05-08T05:38:32;1.67;;;1.57;;
4409;SDS011;2218;51.408;7.208;2023-05-08T05:40:59;1.80;;;1.70;;
4409;SDS011;2218;51.408;7.208;2023-05-08T05:43:27;1.83;;;1.73;;
4409;SDS011;2218;51.408;7.208;2023-05-08T05:45:54;2.20;;;2.10;;
4409;SDS011;2218;51.408;7.208;2023-05-08T05:48:22;1.97;;;1.87;;
4409;SDS011;2218;51.408;7.208;2023-05-08T05:50:50;1.90;;;1.80;;
4409;SDS011;2218;51.408;7.208;2023-05-08T05:53:18;1.57;;;1.47;;
4409;SDS011;2218;51.408;7.208;2023-05-08T05:55:45;2.10;;;2.00;;
4409;SDS011;2218;51.408;7.208;2023-05-08T05:58:12;1.80;;;1.70;;
4409;SDS011;2218;51.408;7.208;2023-05-08T06:00:40;1.80;;;1.70;;
4409;SDS011;2218;51.408;7.208;2023-05-08T06:03:07;1.70;;;1.60;;
4409;SDS011;2218;51.408;7.208;2023-05-08T06:05:34;1.80;;;1.70;;
4409;SDS011;2218;51.408;7.208;2023-05-08T06:08:03;1.60;;;1.50;;
4409;SDS011;2218;51.408;7.208;2023-05-08T06:10:30;1.60;;;1.50;;
4409;SDS011;2218;51.408;7.208;2023-05-08T06:12:57;1.90;;;1.80;;
4409;SDS011;2218;51.408;7.208;2023-05-08T06:15:25;1.80;;;1.70;;
4409;SDS011;2218;51.408;7.208;2023-05-08T06:17:52;1.67;;;1.57;;
4409;SDS011;2218;51.408;7.208;2023-05-08T06:20:19;1.63;;;1.53;;
4409;SDS011;2218;51.408;7.208;2023-05-08T06:22:46;1.70;;;1.60;;
4409;SDS011;2218;51.408;7.208;2023-05-08T06:25:15;1.77;;;1.67;;
4409;SDS011;2218;51.408;7.208;2023-05-08T06:27:43;1.60;;;1.50;;
4409;SDS011;2218;51.408;7.208;2023-05-08T06:30:10;1.67;;;1.57;;
4409;SDS011;2218;51.408;7.208;2023-05-08T06:32:37;1.93;;;1.83;;
4409;SDS011;2218;51.408;7.208;2023-05-08T06:35:05;1.90;;;1.80;;
4409;SDS011;2218;51.408;7.208;2023-05-08T06:37:33;2.00;;;1.80;;
4409;SDS011;2218;51.408;7.208;2023-05-08T06:39:59;2.20;;;2.00;;
4409;SDS011;2218;51.408;7.208;2023-05-08T06:42:29;2.50;;;2.30;;
4409;SDS011;2218;51.408;7.208;2023-05-08T06:44:56;1.70;;;1.60;;
4409;SDS011;2218;51.408;7.208;2023-05-08T06:47:23;4.30;;;1.50;;
4409;SDS011;2218;51.408;7.208;2023-05-08T06:49:50;3.47;;;2.30;;
4409;SDS011;2218;51.408;7.208;2023-05-08T06:52:18;6.77;;;2.00;;
4409;SDS011;2218;51.408;7.208;2023-05-08T06:54:44;1.77;;;1.67;;
4409;SDS011;2218;51.408;7.208;2023-05-08T06:57:12;2.50;;;1.67;;
4409;SDS011;2218;51.408;7.208;2023-05-08T06:59:41;1.70;;;1.60;;
4409;SDS011;2218;51.408;7.208;2023-05-08T07:02:08;5.20;;;1.87;;
4409;SDS011;2218;51.408;7.208;2023-05-08T07:04:35;1.73;;;1.63;;
4409;SDS011;2218;51.408;7.208;2023-05-08T07:07:02;1.70;;;1.60;;
4409;SDS011;2218;51.408;7.208;2023-05-08T07:09:30;1.87;;;1.77;;
4409;SDS011;2218;51.408;7.208;2023-05-08T07:11:57;1.67;;;1.57;;
4409;SDS011;2218;51.408;7.208;2023-05-08T07:14:24;1.77;;;1.67;;
4409;SDS011;2218;51.408;7.208;2023-05-08T07:16:53;1.87;;;1.77;;
4409;SDS011;2218;51.408;7.208;2023-05-08T07:19:20;2.70;;;1.40;;
4409;SDS011;2218;51.408;7.208;2023-05-08T07:21:48;1.80;;;1.70;;
4409;SDS011;2218;51.408;7.208;2023-05-08T07:24:14;1.80;;;1.70;;
4409;SDS011;2218;51.408;7.208;2023-05-08T07:26:41;1.80;;;1.70;;
4409;SDS011;2218;51.408;7.208;2023-05-08T07:29:08;2.07;;;1.63;;
4409;SDS011;2218;51.408;7.208;2023-05-08T07:31:37;1.90;;;1.80;;
4409;SDS011;2218;51.408;7.208;2023-05-08T07:34:06;1.60;;;1.50;;
4409;SDS011;2218;51.408;7.208;2023-05-08T07:36:33;1.60;;;1.50;;
4409;SDS011;2218;51.408;7.208;2023-05-08T07:39:00;1.70;;;1.60;;
4409;SDS011;2218;51.408;7.208;2023-05-08T07:41:28;1.77;;;1.67;;
4409;SDS011;2218;51.408;7.208;2023-05-08T07:43:55;2.57;;;1.60;;
4409;SDS011;2218;51.408;7.208;2023-05-08T07:46:22;1.53;;;1.43;;
4409;SDS011;2218;51.408;7.208;2023-05-08T07:48:49;1.50;;;1.40;;
4409;SDS011;2218;51.408;7.208;2023-05-08T07:51:17;1.87;;;1.77;;
4409;SDS011;2218;51.408;7.208;2023-05-08T07:53:44;1.67;;;1.57;;
4409;SDS011;2218;51.408;7.208;2023-05-08T07:56:12;1.63;;;1.53;;
4409;SDS011;2218;51.408;7.208;2023-05-08T07:58:40;1.90;;;1.80;;
4409;SDS011;2218;51.408;7.208;2023-05-08T08:01:07;1.60;;;1.50;;
4409;SDS011;2218;51.408;7.208;2023-05-08T08:03:33;6.50;;;1.90;;
4409;SDS011;2218;51.408;7.208;2023-05-08T08:06:00;4.03;;;1.37;;
4409;SDS011;2218;51.408;7.208;2023-05-08T08:08:29;3.47;;;1.60;;
4409;SDS011;2218;51.408;7.208;2023-05-08T08:10:56;9.63;;;1.67;;
4409;SDS011;2218;51.408;7.208;2023-05-08T08:13:23;1.47;;;1.37;;
4409;SDS011;2218;51.408;7.208;2023-05-08T08:15:50;1.60;;;1.50;;
4409;SDS011;2218;51.408;7.208;2023-05-08T08:18:17;1.40;;;1.30;;
4409;SDS011;2218;51.408;7.208;2023-05-08T08:20:44;1.83;;;1.73;;
4409;SDS011;2218;51.408;7.208;2023-05-08T08:23:11;1.50;;;1.40;;
4409;SDS011;2218;51.408;7.208;2023-05-08T08:25:39;1.47;;;1.37;;
4409;SDS011;2218;51.408;7.208;2023-05-08T08:28:06;1.20;;;1.10;;
4409;SDS011;2218;51.408;7.208;2023-05-08T08:30:33;1.50;;;1.40;;
4409;SDS011;2218;51.408;7.208;2023-05-08T08:33:00;7.83;;;1.70;;
4409;SDS011;2218;51.408;7.208;2023-05-08T08:35:27;1.33;;;1.23;;
4409;SDS011;2218;51.408;7.208;2023-05-08T08:37:54;1.47;;;1.20;;
4409;SDS011;2218;51.408;7.208;2023-05-08T08:40:21;2.30;;;1.33;;
4409;SDS011;2218;51.408;7.208;2023-05-08T08:42:50;1.57;;;1.20;;
4409;SDS011;2218;51.408;7.208;2023-05-08T08:45:17;1.40;;;1.30;;
4409;SDS011;2218;51.408;7.208;2023-05-08T08:47:44;1.70;;;1.60;;
4409;SDS011;2218;51.408;7.208;2023-05-08T08:50:13;1.60;;;1.50;;
4409;SDS011;2218;51.408;7.208;2023-05-08T08:52:43;1.30;;;1.20;;
4409;SDS011;2218;51.408;7.208;2023-05-08T08:55:18;1.67;;;1.57;;
4409;SDS011;2218;51.408;7.208;2023-05-08T08:57:53;1.77;;;1.67;;
4409;SDS011;2218;51.408;7.208;2023-05-08T09:00:32;1.40;;;1.30;;
4409;SDS011;2218;51.408;7.208;2023-05-08T09:03:03;1.30;;;1.20;;
4409;SDS011;2218;51.408;7.208;2023-05-08T09:05:31;1.40;;;1.30;;
4409;SDS011;2218;51.408;7.208;2023-05-08T09:07:59;1.40;;;1.30;;
4409;SDS011;2218;51.408;7.208;2023-05-08T09:10:27;1.40;;;1.30;;
4409;SDS011;2218;51.408;7.208;2023-05-08T09:12:55;1.50;;;1.33;;
4409;SDS011;2218;51.408;7.208;2023-05-08T09:15:22;1.30;;;1.20;;
4409;SDS011;2218;51.408;7.208;2023-05-08T09:17:49;1.40;;;1.30;;
4409;SDS011;2218;51.408;7.208;2023-05-08T09:20:16;1.40;;;1.30;;
4409;SDS011;2218;51.408;7.208;2023-05-08T09:22:45;1.40;;;1.30;;
4409;SDS011;2218;51.408;7.208;2023-05-08T09:25:13;2.20;;;1.53;;
4409;SDS011;2218;51.408;7.208;2023-05-08T09:27:42;1.60;;;1.50;;
4409;SDS011;2218;51.408;7.208;2023-05-08T09:30:10;1.60;;;1.50;;
4409;SDS011;2218;51.408;7.208;2023-05-08T09:32:40;1.37;;;1.27;;
4409;SDS011;2218;51.408;7.208;2023-05-08T09:35:09;1.57;;;1.47;;
4409;SDS011;2218;51.408;7.208;2023-05-08T09:37:37;2.80;;;1.20;;
4409;SDS011;2218;51.408;7.208;2023-05-08T09:40:12;2.20;;;1.60;;
4409;SDS011;2218;51.408;7.208;2023-05-08T09:42:44;1.03;;;1.03;;
4409;SDS011;2218;51.408;7.208;2023-05-08T09:45:25;1.30;;;1.20;;
4409;SDS011;2218;51.408;7.208;2023-05-08T09:47:54;1.30;;;1.20;;
4409;SDS011;2218;51.408;7.208;2023-05-08T09:50:21;3.50;;;1.57;;
4409;SDS011;2218;51.408;7.208;2023-05-08T09:52:49;2.60;;;1.70;;
4409;SDS011;2218;51.408;7.208;2023-05-08T09:55:16;2.63;;;1.50;;
4409;SDS011;2218;51.408;7.208;2023-05-08T09:57:51;2.90;;;1.47;;
4409;SDS011;2218;51.408;7.208;2023-05-08T10:00:20;0.97;;;0.97;;
4409;SDS011;2218;51.408;7.208;2023-05-08T10:02:56;1.37;;;1.23;;
4409;SDS011;2218;51.408;7.208;2023-05-08T10:05:27;1.27;;;1.17;;
4409;SDS011;2218;51.408;7.208;2023-05-08T10:07:56;1.70;;;1.60;;
4409;SDS011;2218;51.408;7.208;2023-05-08T10:10:24;1.20;;;1.10;;
4409;SDS011;2218;51.408;7.208;2023-05-08T10:12:53;1.77;;;1.13;;
4409;SDS011;2218;51.408;7.208;2023-05-08T10:15:22;3.17;;;1.80;;
4409;SDS011;2218;51.408;7.208;2023-05-08T10:17:52;1.27;;;1.17;;
4409;SDS011;2218;51.408;7.208;2023-05-08T10:20:28;1.27;;;1.27;;
4409;SDS011;2218;51.408;7.208;2023-05-08T10:22:56;4.30;;;1.17;;
4409;SDS011;2218;51.408;7.208;2023-05-08T10:25:27;1.20;;;1.10;;
4409;SDS011;2218;51.408;7.208;2023-05-08T10:28:04;1.60;;;1.50;;
4409;SDS011;2218;51.408;7.208;2023-05-08T10:30:47;1.20;;;1.10;;
4409;SDS011;2218;51.408;7.208;2023-05-08T10:33:18;2.43;;;1.20;;
4409;SDS011;2218;51.408;7.208;2023-05-08T10:35:50;1.60;;;1.50;;
4409;SDS011;2218;51.408;7.208;2023-05-08T10:38:17;1.13;;;1.03;;
4409;SDS011;2218;51.408;7.208;2023-05-08T10:40:45;1.17;;;1.10;;
4409;SDS011;2218;51.408;7.208;2023-05-08T10:43:16;1.97;;;1.17;;
4409;SDS011;2218;51.408;7.208;2023-05-08T10:45:45;1.30;;;1.20;;
4409;SDS011;2218;51.408;7.208;2023-05-08T10:48:15;1.50;;;1.40;;
4409;SDS011;2218;51.408;7.208;2023-05-08T10:50:56;1.20;;;1.10;;
4409;SDS011;2218;51.408;7.208;2023-05-08T10:53:33;1.40;;;1.30;;
4409;SDS011;2218;51.408;7.208;2023-05-08T10:56:08;1.37;;;1.20;;
4409;SDS011;2218;51.408;7.208;2023-05-08T10:58:36;4.83;;;1.20;;
4409;SDS011;2218;51.408;7.208;2023-05-08T11:01:11;1.00;;;1.00;;
4409;SDS011;2218;51.408;7.208;2023-05-08T11:03:42;1.33;;;1.10;;
4409;SDS011;2218;51.408;7.208;2023-05-08T11:06:11;1.17;;;1.07;;
4409;SDS011;2218;51.408;7.208;2023-05-08T11:08:47;1.20;;;1.10;;
4409;SDS011;2218;51.408;7.208;2023-05-08T11:11:18;1.93;;;1.03;;
4409;SDS011;2218;51.408;7.208;2023-05-08T11:13:52;1.20;;;1.10;;
4409;SDS011;2218;51.408;7.208;2023-05-08T11:19:39;1.27;;;1.17;;
4409;SDS011;2218;51.408;7.208;2023-05-08T11:22:23;1.27;;;1.17;;
4409;SDS011;2218;51.408;7.208;2023-05-08T11:24:54;1.30;;;1.20;;
4409;SDS011;2218;51.408;7.208;2023-05-08T11:27:40;1.37;;;1.00;;
4409;SDS011;2218;51.408;7.208;2023-05-08T11:30:38;2.53;;;1.30;;
4409;SDS011;2218;51.408;7.208;2023-05-08T11:33:12;1.30;;;1.20;;
4409;SDS011;2218;51.408;7.208;2023-05-08T11:35:53;2.10;;;1.10;;
4409;SDS011;2218;51.408;7.208;2023-05-08T11:38:23;1.43;;;1.17;;
4409;SDS011;2218;51.408;7.208;2023-05-08T11:40:54;1.10;;;1.00;;
4409;SDS011;2218;51.408;7.208;2023-05-08T11:43:28;1.83;;;1.10;;
4409;SDS011;2218;51.408;7.208;2023-05-08T11:46:20;1.10;;;1.00;;
4409;SDS011;2218;51.408;7.208;2023-05-08T11:48:47;1.33;;;1.23;;
4409;SDS011;2218;51.408;7.208;2023-05-08T11:51:16;1.20;;;1.10;;
4409;SDS011;2218;51.408;7.208;2023-05-08T11:53:44;1.13;;;1.03;;
4409;SDS011;2218;51.408;7.208;2023-05-08T11:56:12;1.00;;;1.00;;
4409;SDS011;2218;51.408;7.208;2023-05-08T11:58:40;1.20;;;1.10;;
4409;SDS011;2218;51.408;7.208;2023-05-08T12:01:08;3.03;;;1.00;;
4409;SDS011;2218;51.408;7.208;2023-05-08T12:03:35;2.13;;;0.90;;
4409;SDS011;2218;51.408;7.208;2023-05-08T12:06:02;2.77;;;1.23;;
4409;SDS011;2218;51.408;7.208;2023-05-08T12:08:30;1.07;;;1.00;;
4409;SDS011;2218;51.408;7.208;2023-05-08T12:10:57;1.10;;;1.00;;
4409;SDS011;2218;51.408;7.208;2023-05-08T12:13:24;1.20;;;1.10;;
4409;SDS011;2218;51.408;7.208;2023-05-08T12:15:56;8.10;;;1.20;;
4409;SDS011;2218;51.408;7.208;2023-05-08T12:18:25;6.30;;;1.20;;
4409;SDS011;2218;51.408;7.208;2023-05-08T12:20:55;4.23;;;1.07;;
4409;SDS011;2218;51.408;7.208;2023-05-08T12:23:24;1.13;;;1.03;;
4409;SDS011;2218;51.408;7.208;2023-05-08T12:25:52;2.50;;;1.00;;
4409;SDS011;2218;51.408;7.208;2023-05-08T12:28:20;1.40;;;1.30;;
4409;SDS011;2218;51.408;7.208;2023-05-08T12:30:48;4.70;;;1.50;;
4409;SDS011;2218;51.408;7.208;2023-05-08T12:33:16;1.20;;;1.10;;
4409;SDS011;2218;51.408;7.208;2023-05-08T12:35:45;8.20;;;1.03;;
4409;SDS011;2218;51.408;7.208;2023-05-08T12:38:12;1.93;;;1.20;;
4409;SDS011;2218;51.408;7.208;2023-05-08T12:40:40;2.40;;;1.10;;
4409;SDS011;2218;51.408;7.208;2023-05-08T12:43:08;7.07;;;1.20;;
4409;SDS011;2218;51.408;7.208;2023-05-08T12:45:37;0.93;;;0.93;;
4409;SDS011;2218;51.408;7.208;2023-05-08T12:48:06;1.57;;;1.03;;
4409;SDS011;2218;51.408;7.208;2023-05-08T12:50:36;1.20;;;1.00;;
4409;SDS011;2218;51.408;7.208;2023-05-08T12:53:06;1.30;;;1.03;;
4409;SDS011;2218;51.408;7.208;2023-05-08T12:55:35;0.90;;;0.90;;
4409;SDS011;2218;51.408;7.208;2023-05-08T12:58:04;2.23;;;0.90;;
4409;SDS011;2218;51.408;7.208;2023-05-08T13:00:34;2.90;;;1.00;;
4409;SDS011;2218;51.408;7.208;2023-05-08T13:03:03;0.80;;;0.80;;
4409;SDS011;2218;51.408;7.208;2023-05-08T13:05:33;4.83;;;1.00;;
4409;SDS011;2218;51.408;7.208;2023-05-08T13:08:02;2.93;;;1.00;;
4409;SDS011;2218;51.408;7.208;2023-05-08T13:10:43;1.20;;;1.10;;
4409;SDS011;2218;51.408;7.208;2023-05-08T13:13:11;1.10;;;1.00;;
4409;SDS011;2218;51.408;7.208;2023-05-08T13:15:39;2.80;;;1.07;;
4409;SDS011;2218;51.408;7.208;2023-05-08T13:18:06;1.03;;;0.90;;
4409;SDS011;2218;51.408;7.208;2023-05-08T13:20:33;1.17;;;1.07;;
4409;SDS011;2218;51.408;7.208;2023-05-08T13:23:02;3.90;;;1.23;;
4409;SDS011;2218;51.408;7.208;2023-05-08T13:25:30;5.00;;;1.27;;
4409;SDS011;2218;51.408;7.208;2023-05-08T13:27:58;1.33;;;1.23;;
4409;SDS011;2218;51.408;7.208;2023-05-08T13:30:25;1.20;;;0.90;;
4409;SDS011;2218;51.408;7.208;2023-05-08T13:32:53;2.30;;;1.20;;
4409;SDS011;2218;51.408;7.208;2023-05-08T13:35:21;2.67;;;1.40;;
4409;SDS011;2218;51.408;7.208;2023-05-08T13:37:50;1.53;;;1.17;;
4409;SDS011;2218;51.408;7.208;2023-05-08T13:40:17;1.60;;;1.37;;
4409;SDS011;2218;51.408;7.208;2023-05-08T13:42:44;1.77;;;1.10;;
4409;SDS011;2218;51.408;7.208;2023-05-08T13:45:11;0.73;;;0.73;;
4409;SDS011;2218;51.408;7.208;2023-05-08T13:47:39;1.17;;;1.07;;
4409;SDS011;2218;51.408;7.208;2023-05-08T13:50:07;0.83;;;0.83;;
4409;SDS011;2218;51.408;7.208;2023-05-08T13:52:36;1.73;;;1.10;;
4409;SDS011;2218;51.408;7.208;2023-05-08T13:55:06;2.80;;;1.17;;
4409;SDS011;2218;51.408;7.208;2023-05-08T13:57:35;1.10;;;1.00;;
4409;SDS011;2218;51.408;7.208;2023-05-08T14:00:03;1.10;;;1.00;;
4409;SDS011;2218;51.408;7.208;2023-05-08T14:02:33;2.20;;;1.10;;
4409;SDS011;2218;51.408;7.208;2023-05-08T14:05:01;1.10;;;1.00;;
4409;SDS011;2218;51.408;7.208;2023-05-08T14:07:28;1.00;;;1.00;;
4409;SDS011;2218;51.408;7.208;2023-05-08T14:09:55;1.10;;;1.00;;
4409;SDS011;2218;51.408;7.208;2023-05-08T14:12:23;1.20;;;1.10;;
4409;SDS011;2218;51.408;7.208;2023-05-08T14:14:50;1.70;;;1.13;;
4409;SDS011;2218;51.408;7.208;2023-05-08T14:17:17;1.23;;;1.13;;
4409;SDS011;2218;51.408;7.208;2023-05-08T14:19:44;1.40;;;1.10;;
4409;SDS011;2218;51.408;7.208;2023-05-08T14:22:11;1.83;;;1.00;;
4409;SDS011;2218;51.408;7.208;2023-05-08T14:24:38;1.40;;;1.30;;
4409;SDS011;2218;51.408;7.208;2023-05-08T14:27:05;1.30;;;1.20;;
4409;SDS011;2218;51.408;7.208;2023-05-08T14:29:33;0.80;;;0.80;;
4409;SDS011;2218;51.408;7.208;2023-05-08T14:32:00;0.83;;;0.83;;
4409;SDS011;2218;51.408;7.208;2023-05-08T14:34:28;1.27;;;1.10;;
4409;SDS011;2218;51.408;7.208;2023-05-08T14:36:54;1.20;;;1.10;;
4409;SDS011;2218;51.408;7.208;2023-05-08T14:39:21;1.93;;;1.07;;
4409;SDS011;2218;51.408;7.208;2023-05-08T14:41:48;1.50;;;1.40;;
4409;SDS011;2218;51.408;7.208;2023-05-08T14:44:15;2.50;;;1.33;;
4409;SDS011;2218;51.408;7.208;2023-05-08T14:46:44;1.67;;;1.57;;
4409;SDS011;2218;51.408;7.208;2023-05-08T14:49:10;1.27;;;1.17;;
4409;SDS011;2218;51.408;7.208;2023-05-08T14:51:37;2.10;;;1.97;;
4409;SDS011;2218;51.408;7.208;2023-05-08T14:54:04;1.60;;;1.50;;
4409;SDS011;2218;51.408;7.208;2023-05-08T14:56:31;1.53;;;1.43;;
4409;SDS011;2218;51.408;7.208;2023-05-08T14:58:58;1.70;;;1.60;;
4409;SDS011;2218;51.408;7.208;2023-05-08T15:01:25;1.57;;;1.47;;
4409;SDS011;2218;51.408;7.208;2023-05-08T15:03:53;2.43;;;1.70;;
4409;SDS011;2218;51.408;7.208;2023-05-08T15:06:21;1.77;;;1.67;;
4409;SDS011;2218;51.408;7.208;2023-05-08T15:08:51;1.50;;;1.40;;
4409;SDS011;2218;51.408;7.208;2023-05-08T15:11:18;1.80;;;1.70;;
4409;SDS011;2218;51.408;7.208;2023-05-08T15:13:46;1.80;;;1.70;;
4409;SDS011;2218;51.408;7.208;2023-05-08T15:16:14;1.80;;;1.70;;
4409;SDS011;2218;51.408;7.208;2023-05-08T15:18:41;1.67;;;1.57;;
4409;SDS011;2218;51.408;7.208;2023-05-08T15:21:09;2.60;;;1.77;;
4409;SDS011;2218;51.408;7.208;2023-05-08T15:23:36;1.50;;;1.40;;
4409;SDS011;2218;51.408;7.208;2023-05-08T15:26:03;1.80;;;1.70;;
4409;SDS011;2218;51.408;7.208;2023-05-08T15:28:32;1.70;;;1.60;;
4409;SDS011;2218;51.408;7.208;2023-05-08T15:31:02;1.87;;;1.77;;
4409;SDS011;2218;51.408;7.208;2023-05-08T15:33:29;1.67;;;1.57;;
4409;SDS011;2218;51.408;7.208;2023-05-08T15:35:56;2.00;;;1.80;;
4409;SDS011;2218;51.408;7.208;2023-05-08T15:38:25;2.10;;;2.00;;